CheckWX is a tool to help pilots better visualize weather data.  It is not intended as a substitute for an official pre-flight weather briefing.

15:56:12 UTC

PAEI TAF
Eielson AFB Airport
Fairbanks, Alaska, USA
TAF AMD PAEI 171350Z 1713/1818 VRB06KT 9000 BR BKN005 QNH3032INS BECMG 1715/1717 VRB06KT 9000 BR SCT008 BKN039 QNH3035INS BECMG 1717/1718 VRB06KT 9000 BR FEW009 SCT040 QNH3037INS TX14/1802Z TN07/1715Z

Aug-17@
13:00 UTC

Aug-17 @ 13:00 UTC

Aug-17@
15:00 UTC

Aug-17 @ 15:00 UTC

TAF AMD PAEI 171350Z 1713/1818 VRB06KT 9000 BR BKN005 QNH3032INS

Expired

Wind
  • Variable at 6 KTS
Conditions
Mist
Cloud Levels
  • Broken at 500' AGL

Aug-17@
15:00 UTC

Aug-17 @ 15:00 UTC

Aug-17@
17:00 UTC

Aug-17 @ 17:00 UTC

BECMG 1715/1717 VRB06KT 9000 BR SCT008 BKN039 QNH3035INS

Becoming

Becoming Conditions expected by Sat, Aug 17, 2019 @ 17:00 UTC

Wind
  • Variable at 6 KTS
Conditions
Mist
Cloud Levels
  • Scattered at 800' AGL
  • Broken at 3,900' AGL

Aug-17@
17:00 UTC

Aug-17 @ 17:00 UTC

Aug-18@
18:00 UTC

Aug-18 @ 18:00 UTC

BECMG 1717/1718 VRB06KT 9000 BR FEW009 SCT040 QNH3037INS TX14/1802Z TN07/1715Z

Becoming

Becoming Conditions expected by Sat, Aug 17, 2019 @ 18:00 UTC

Wind
  • Variable at 6 KTS
Conditions
Mist
Cloud Levels
  • Few at 900' AGL
  • Scattered at 4,000' AGL